Time;durP1;ratioP1;P1;durP2;ratioP2;P2;SDS_P1;SDS_P2;PMS_P1;PMS_P2;Temp;Humidity;BMP_temperature;BMP_pressure;BME280_temperature;BME280_humidity;BME280_pressure;Samples;Min_cycle;Max_cycle;Signal;HPM_P1;HPM_P2
2023/07/25 00:02:11;;;;;;;;;;;;;;;;;;5046817;28;5069;-63
2023/07/25 00:04:36;;;;;;;;;;;;;;;;;;5034311;28;4506;-63
2023/07/25 00:07:02;;;;;;;;;;;;;;;;;;5051046;28;5041;-63
2023/07/25 00:09:27;;;;;;;;;;;;;;;;;;5068942;28;4536;-64
2023/07/25 00:11:53;;;;;;;;;;;;;;;;;;5068959;28;4447;-61
2023/07/25 00:14:18;;;;;;;;;;;;;;;;;;5070346;28;1310;-63
2023/07/25 00:16:44;;;;;;;;;;;;;;;;;;5051031;28;4780;-62
2023/07/25 00:19:09;;;;;;;;;;;;;;;;;;5068093;28;4975;-64
2023/07/25 00:21:34;;;;;;;;;;;;;;;;;;5066405;28;4612;-63
2023/07/25 00:24:00;;;;;;;;;;;;;;;;;;5050180;28;4563;-63
2023/07/25 00:26:25;;;;;;;;;;;;;;;;;;5048793;28;1210;-62
2023/07/25 00:28:50;;;;;;;;;;;;;;;;;;5064833;28;4961;-62
2023/07/25 00:31:16;;;;;;;;;;;;;;;;;;5069198;28;4415;-62
2023/07/25 00:33:41;;;;;;;;;;;;;;;;;;5063297;28;5159;-63
2023/07/25 00:36:06;;;;;;;;;;;;;;;;;;5051061;28;4432;-63
2023/07/25 00:38:31;;;;;;;;;;;;;;;;;;5069754;28;1168;-63
2023/07/25 00:40:57;;;;;;;;;;;;;;;;;;5069185;28;4490;-63
2023/07/25 00:43:22;;;;;;;;;;;;;;;;;;5068823;28;5284;-63
2023/07/25 00:45:47;;;;;;;;;;;;;;;;;;5067683;28;4641;-63
2023/07/25 00:48:12;;;;;;;;;;;;;;;;;;5050657;28;4857;-63
2023/07/25 00:50:38;;;;;;;;;;;;;;;;;;5069409;28;1140;-63
2023/07/25 00:53:03;;;;;;;;;;;;;;;;;;5067374;28;4952;-63
2023/07/25 00:55:28;;;;;;;;;;;;;;;;;;5050264;28;4652;-64
2023/07/25 00:57:54;;;;;;;;;;;;;;;;;;5068873;28;4407;-64
2023/07/25 01:00:19;;;;;;;;;;;;;;;;;;5068475;28;4448;-63
2023/07/25 01:02:44;;;;;;;;;;;;;;;;;;5068917;28;2061;-62
2023/07/25 01:05:10;;;;;;;;;;;;;;;;;;5050011;28;4524;-62
2023/07/25 01:07:38;;;;;;;;;;;;;;;;;;5068275;28;4607;-62
2023/07/25 01:10:04;;;;;;;;;;;;;;;;;;5050677;28;4830;-62
2023/07/25 01:12:29;;;;;;;;;;;;;;;;;;5064888;28;5123;-63
2023/07/25 01:14:54;;;;;;;;;;;;;;;;;;5048477;28;5260;-63
2023/07/25 01:17:21;;;;;;;;;;;;;;;;;;5068504;28;1159;-63
2023/07/25 01:19:46;;;;;;;;;;;;;;;;;;5033151;28;4550;-63
2023/07/25 01:22:12;;;;;;;;;;;;;;;;;;5035956;28;5031;-63
2023/07/25 01:24:38;;;;;;;;;;;;;;;;;;5046546;28;5206;-62
2023/07/25 01:27:04;;;;;;;;;;;;;;;;;;5050310;28;5047;-63
2023/07/25 01:29:29;;;;;;;;;;;;;;;;;;5066579;28;1275;-62
2023/07/25 01:31:55;;;;;;;;;;;;;;;;;;5062640;28;5145;-62
2023/07/25 01:34:21;;;;;;;;;;;;;;;;;;5063260;28;5075;-64
2023/07/25 01:36:46;;;;;;;;;;;;;;;;;;5068256;28;5047;-64
2023/07/25 01:39:11;;;;;;;;;;;;;;;;;;5064084;28;5570;-64
2023/07/25 01:41:37;;;;;;;;;;;;;;;;;;5067934;28;1159;-62
2023/07/25 01:44:02;;;;;;;;;;;;;;;;;;5048177;28;5080;-63
2023/07/25 01:46:27;;;;;;;;;;;;;;;;;;5067632;28;4960;-63
2023/07/25 01:48:53;;;;;;;;;;;;;;;;;;5061300;28;5272;-63
2023/07/25 01:51:18;;;;;;;;;;;;;;;;;;5067345;28;4964;-62
2023/07/25 01:53:43;;;;;;;;;;;;;;;;;;5064105;28;1503;-63
2023/07/25 01:56:08;;;;;;;;;;;;;;;;;;5064524;28;4760;-63
2023/07/25 01:58:34;;;;;;;;;;;;;;;;;;5067450;28;4463;-64
2023/07/25 02:00:59;;;;;;;;;;;;;;;;;;5067147;28;4854;-64
2023/07/25 02:03:25;;;;;;;;;;;;;;;;;;5067374;28;5179;-64
2023/07/25 02:05:50;;;;;;;;;;;;;;;;;;5068406;28;1185;-64
2023/07/25 02:08:15;;;;;;;;;;;;;;;;;;5067443;28;4410;-64
2023/07/25 02:10:41;;;;;;;;;;;;;;;;;;5067095;28;4922;-65
2023/07/25 02:13:06;;;;;;;;;;;;;;;;;;5066501;28;4806;-64
2023/07/25 02:15:31;;;;;;;;;;;;;;;;;;5067500;28;5048;-63
2023/07/25 02:17:57;;;;;;;;;;;;;;;;;;5067158;28;5012;-64
2023/07/25 02:20:25;;;;;;;;;;;;;;;;;;5050173;28;1309;-64
2023/07/25 02:22:51;;;;;;;;;;;;;;;;;;5065157;28;5161;-64
2023/07/25 02:25:16;;;;;;;;;;;;;;;;;;5065697;28;5109;-64
2023/07/25 02:27:41;;;;;;;;;;;;;;;;;;5067031;28;5001;-64
2023/07/25 02:30:07;;;;;;;;;;;;;;;;;;5067192;28;5003;-64
2023/07/25 02:32:32;;;;;;;;;;;;;;;;;;5065623;28;4973;-64
2023/07/25 02:34:57;;;;;;;;;;;;;;;;;;5066630;28;4474;-64
2023/07/25 02:37:22;;;;;;;;;;;;;;;;;;5067555;28;4453;-64
2023/07/25 02:39:48;;;;;;;;;;;;;;;;;;5067388;28;5028;-64
2023/07/25 02:42:13;;;;;;;;;;;;;;;;;;5066989;28;4712;-63
2023/07/25 02:44:38;;;;;;;;;;;;;;;;;;5068077;28;1981;-64
2023/07/25 02:47:03;;;;;;;;;;;;;;;;;;5066039;28;5257;-63
2023/07/25 02:49:29;;;;;;;;;;;;;;;;;;5067165;28;4779;-63
2023/07/25 02:51:54;;;;;;;;;;;;;;;;;;5068752;28;4490;-63
2023/07/25 02:54:19;;;;;;;;;;;;;;;;;;5066806;28;5043;-64
2023/07/25 02:56:44;;;;;;;;;;;;;;;;;;5071277;28;2358;-64
2023/07/25 02:59:10;;;;;;;;;;;;;;;;;;5050649;28;5029;-64
2023/07/25 03:01:35;;;;;;;;;;;;;;;;;;5071293;28;5027;-64
2023/07/25 03:04:00;;;;;;;;;;;;;;;;;;5052833;28;5108;-63
2023/07/25 03:06:26;;;;;;;;;;;;;;;;;;5070989;28;5029;-64
2023/07/25 03:08:51;;;;;;;;;;;;;;;;;;5071165;28;1143;-63
2023/07/25 03:11:16;;;;;;;;;;;;;;;;;;5070786;28;4757;-64
2023/07/25 03:13:41;;;;;;;;;;;;;;;;;;5070549;28;5243;-64
2023/07/25 03:16:07;;;;;;;;;;;;;;;;;;5065624;28;4714;-64
2023/07/25 03:18:32;;;;;;;;;;;;;;;;;;5070145;28;5031;-63
2023/07/25 03:20:57;;;;;;;;;;;;;;;;;;5070852;28;4442;-64
2023/07/25 03:23:22;;;;;;;;;;;;;;;;;;5052447;28;1985;-64
2023/07/25 03:25:48;;;;;;;;;;;;;;;;;;5066124;28;5100;-63
2023/07/25 03:28:13;;;;;;;;;;;;;;;;;;5051605;28;4882;-63
2023/07/25 03:30:38;;;;;;;;;;;;;;;;;;5052015;28;5035;-63
2023/07/25 03:33:03;;;;;;;;;;;;;;;;;;5068192;28;5061;-63
2023/07/25 03:35:29;;;;;;;;;;;;;;;;;;5070491;28;1354;-63
2023/07/25 03:37:54;;;;;;;;;;;;;;;;;;5070299;28;4984;-64
2023/07/25 03:40:19;;;;;;;;;;;;;;;;;;5069862;28;4976;-64
2023/07/25 03:42:44;;;;;;;;;;;;;;;;;;5069904;28;5048;-62
2023/07/25 03:45:10;;;;;;;;;;;;;;;;;;5069888;28;5028;-63
2023/07/25 03:47:35;;;;;;;;;;;;;;;;;;5068780;28;1108;-62
2023/07/25 03:50:00;;;;;;;;;;;;;;;;;;5051834;28;5083;-64
2023/07/25 03:52:27;;;;;;;;;;;;;;;;;;5069239;28;5142;-64
2023/07/25 03:54:52;;;;;;;;;;;;;;;;;;5069715;28;5102;-64
2023/07/25 03:57:17;;;;;;;;;;;;;;;;;;5070077;28;4873;-64
2023/07/25 03:59:42;;;;;;;;;;;;;;;;;;5069791;28;1519;-63
2023/07/25 04:02:08;;;;;;;;;;;;;;;;;;5069339;28;4989;-63
2023/07/25 04:04:34;;;;;;;;;;;;;;;;;;5069765;28;5095;-64
2023/07/25 04:06:59;;;;;;;;;;;;;;;;;;5064565;28;4974;-63
2023/07/25 04:09:24;;;;;;;;;;;;;;;;;;5069646;28;5033;-63
2023/07/25 04:11:49;;;;;;;;;;;;;;;;;;5070028;28;1306;-64
2023/07/25 04:14:14;;;;;;;;;;;;;;;;;;5069363;28;4564;-63
2023/07/25 04:16:40;;;;;;;;;;;;;;;;;;5069313;28;4468;-64
2023/07/25 04:19:05;;;;;;;;;;;;;;;;;;5069013;28;4777;-63
2023/07/25 04:21:30;;;;;;;;;;;;;;;;;;5066716;28;5059;-63
2023/07/25 04:23:55;;;;;;;;;;;;;;;;;;5061675;28;5036;-64
2023/07/25 04:26:21;;;;;;;;;;;;;;;;;;5068696;28;1136;-63
2023/07/25 04:28:48;;;;;;;;;;;;;;;;;;5064000;28;4965;-64
2023/07/25 04:31:13;;;;;;;;;;;;;;;;;;5068882;28;4870;-65
2023/07/25 04:33:38;;;;;;;;;;;;;;;;;;5068231;28;5018;-65
2023/07/25 04:36:04;;;;;;;;;;;;;;;;;;5069308;28;4977;-65
2023/07/25 04:38:29;;;;;;;;;;;;;;;;;;5069395;28;1363;-65
2023/07/25 04:40:56;;;;;;;;;;;;;;;;;;5068880;28;5008;-64
2023/07/25 04:43:22;;;;;;;;;;;;;;;;;;5068823;28;4873;-64
2023/07/25 04:45:47;;;;;;;;;;;;;;;;;;5068517;28;5115;-65
2023/07/25 04:48:12;;;;;;;;;;;;;;;;;;5050878;28;5035;-65
2023/07/25 04:50:37;;;;;;;;;;;;;;;;;;5049841;28;3395;-64
2023/07/25 04:53:03;;;;;;;;;;;;;;;;;;5064297;28;5079;-63
2023/07/25 04:55:28;;;;;;;;;;;;;;;;;;5057281;28;5064;-63
2023/07/25 04:57:54;;;;;;;;;;;;;;;;;;5063004;28;5036;-62
2023/07/25 05:00:19;;;;;;;;;;;;;;;;;;5064417;28;5205;-63
2023/07/25 05:02:44;;;;;;;;;;;;;;;;;;5055268;28;3315;-62
2023/07/25 05:05:10;;;;;;;;;;;;;;;;;;5064195;28;5066;-63
2023/07/25 05:07:35;;;;;;;;;;;;;;;;;;5060896;28;4885;-63
2023/07/25 05:10:00;;;;;;;;;;;;;;;;;;5065782;28;5019;-59
2023/07/25 05:12:25;;;;;;;;;;;;;;;;;;5063563;28;4492;-63
2023/07/25 05:14:51;;;;;;;;;;;;;;;;;;5065947;28;1123;-63
2023/07/25 05:17:16;;;;;;;;;;;;;;;;;;5066259;28;4588;-63
2023/07/25 05:19:41;;;;;;;;;;;;;;;;;;5066332;28;5136;-63
2023/07/25 05:22:07;;;;;;;;;;;;;;;;;;5066419;28;4482;-63
2023/07/25 05:24:32;;;;;;;;;;;;;;;;;;5045394;28;4912;-62
2023/07/25 05:26:57;;;;;;;;;;;;;;;;;;5066605;28;5231;-63
2023/07/25 05:29:22;;;;;;;;;;;;;;;;;;5068274;28;1230;-64
2023/07/25 05:31:48;;;;;;;;;;;;;;;;;;5067724;28;4931;-63
2023/07/25 05:34:13;;;;;;;;;;;;;;;;;;5067851;28;4976;-63
2023/07/25 05:36:38;;;;;;;;;;;;;;;;;;5050322;28;4655;-64
2023/07/25 05:39:03;;;;;;;;;;;;;;;;;;5067271;28;5045;-63
2023/07/25 05:41:29;;;;;;;;;;;;;;;;;;5068915;28;1140;-63
2023/07/25 05:43:54;;;;;;;;;;;;;;;;;;5049620;28;4998;-63
2023/07/25 05:46:19;;;;;;;;;;;;;;;;;;5067826;28;5124;-64
2023/07/25 05:48:44;;;;;;;;;;;;;;;;;;5065675;28;4782;-64
2023/07/25 05:51:10;;;;;;;;;;;;;;;;;;5067915;28;5034;-63
2023/07/25 05:53:35;;;;;;;;;;;;;;;;;;5063006;28;1322;-63
2023/07/25 05:56:00;;;;;;;;;;;;;;;;;;5051742;28;4847;-64
2023/07/25 05:58:25;;;;;;;;;;;;;;;;;;5067721;28;5016;-64
2023/07/25 06:00:51;;;;;;;;;;;;;;;;;;5067544;28;5010;-63
2023/07/25 06:03:16;;;;;;;;;;;;;;;;;;5067176;28;5175;-63
2023/07/25 06:05:42;;;;;;;;;;;;;;;;;;5067799;28;1063;-64
2023/07/25 06:08:07;;;;;;;;;;;;;;;;;;5067326;28;4993;-63
2023/07/25 06:10:33;;;;;;;;;;;;;;;;;;5066369;28;5025;-63
2023/07/25 06:12:58;;;;;;;;;;;;;;;;;;5032248;28;5036;-64
2023/07/25 06:15:23;;;;;;;;;;;;;;;;;;5067489;28;5868;-63
2023/07/25 06:17:49;;;;;;;;;;;;;;;;;;5049365;28;1275;-64
2023/07/25 06:20:14;;;;;;;;;;;;;;;;;;5067384;28;5036;-63
2023/07/25 06:22:39;;;;;;;;;;;;;;;;;;5066579;28;5051;-64
2023/07/25 06:25:07;;;;;;;;;;;;;;;;;;5064637;28;4570;-63
2023/07/25 06:27:32;;;;;;;;;;;;;;;;;;5056189;28;4694;-64
2023/07/25 06:29:58;;;;;;;;;;;;;;;;;;5069481;28;4886;-63
2023/07/25 06:32:23;;;;;;;;;;;;;;;;;;5072237;28;4806;-64
2023/07/25 06:34:48;;;;;;;;;;;;;;;;;;5071574;28;4539;-63
2023/07/25 06:37:13;;;;;;;;;;;;;;;;;;5055396;28;5091;-63
2023/07/25 06:39:39;;;;;;;;;;;;;;;;;;5073485;28;4912;-63
2023/07/25 06:42:04;;;;;;;;;;;;;;;;;;5073533;28;4480;-63
2023/07/25 06:44:29;;;;;;;;;;;;;;;;;;5073704;28;1914;-64
2023/07/25 06:46:54;;;;;;;;;;;;;;;;;;5058640;28;5034;-56
2023/07/25 06:49:19;;;;;;;;;;;;;;;;;;5073585;28;5162;-56
2023/07/25 06:51:45;;;;;;;;;;;;;;;;;;5079066;28;4638;-57
2023/07/25 06:54:10;;;;;;;;;;;;;;;;;;5055651;28;5194;-57
2023/07/25 06:56:35;;;;;;;;;;;;;;;;;;5077119;28;1542;-56
2023/07/25 06:59:00;;;;;;;;;;;;;;;;;;5073436;28;4419;-56
2023/07/25 07:01:27;;;;;;;;;;;;;;;;;;5077921;28;4858;-57
2023/07/25 07:03:53;;;;;;;;;;;;;;;;;;5067931;28;5132;-56
2023/07/25 07:06:19;;;;;;;;;;;;;;;;;;5073025;28;5056;-56
2023/07/25 07:08:44;;;;;;;;;;;;;;;;;;5074409;28;1089;-56
2023/07/25 07:11:09;;;;;;;;;;;;;;;;;;5073178;28;5035;-56
2023/07/25 07:13:34;;;;;;;;;;;;;;;;;;5078760;28;4922;-56
2023/07/25 07:16:00;;;;;;;;;;;;;;;;;;5073205;28;5045;-56
2023/07/25 07:18:25;;;;;;;;;;;;;;;;;;5077233;28;4502;-56
2023/07/25 07:20:50;;;;;;;;;;;;;;;;;;5076805;28;1250;-56
2023/07/25 07:23:16;;;;;;;;;;;;;;;;;;5071900;28;4948;-57
2023/07/25 07:25:41;;;;;;;;;;;;;;;;;;5078073;28;4439;-57
2023/07/25 07:28:07;;;;;;;;;;;;;;;;;;5072936;28;4467;-57
2023/07/25 07:30:32;;;;;;;;;;;;;;;;;;5079154;28;5078;-56
2023/07/25 07:32:58;;;;;;;;;;;;;;;;;;5069191;28;5139;-56
2023/07/25 07:35:23;;;;;;;;;;;;;;;;;;5075743;28;1387;-56
2023/07/25 07:37:48;;;;;;;;;;;;;;;;;;5048502;28;4836;-55
2023/07/25 07:40:14;;;;;;;;;;;;;;;;;;5068913;28;5103;-56
2023/07/25 07:42:39;;;;;;;;;;;;;;;;;;5070228;28;5025;-58
2023/07/25 07:45:04;;;;;;;;;;;;;;;;;;5070082;28;4500;-56
2023/07/25 07:47:29;;;;;;;;;;;;;;;;;;5056095;28;1250;-62
2023/07/25 07:49:55;;;;;;;;;;;;;;;;;;5074400;28;4469;-69
2023/07/25 07:52:20;;;;;;;;;;;;;;;;;;5071826;28;5032;-67
2023/07/25 07:54:45;;;;;;;;;;;;;;;;;;5071863;28;4497;-70
2023/07/25 07:57:10;;;;;;;;;;;;;;;;;;5071743;28;4996;-70
2023/07/25 07:59:36;;;;;;;;;;;;;;;;;;5067077;28;1121;-67
2023/07/25 08:02:01;;;;;;;;;;;;;;;;;;5069025;28;5026;-68
2023/07/25 08:04:26;;;;;;;;;;;;;;;;;;5071112;28;4445;-61
2023/07/25 08:06:52;;;;;;;;;;;;;;;;;;5049628;28;5007;-69
2023/07/25 08:09:17;;;;;;;;;;;;;;;;;;5070174;28;4920;-66
2023/07/25 08:11:42;;;;;;;;;;;;;;;;;;5066145;28;1169;-70
2023/07/25 08:14:07;;;;;;;;;;;;;;;;;;5067552;28;4956;-71
2023/07/25 08:16:33;;;;;;;;;;;;;;;;;;5066567;28;5009;-65
2023/07/25 08:18:58;;;;;;;;;;;;;;;;;;5069070;28;4639;-66
2023/07/25 08:21:23;;;;;;;;;;;;;;;;;;5068695;28;5074;-67
2023/07/25 08:23:48;;;;;;;;;;;;;;;;;;5067717;28;1914;-58
2023/07/25 08:26:14;;;;;;;;;;;;;;;;;;5060755;28;4948;-58
2023/07/25 08:28:39;;;;;;;;;;;;;;;;;;5062674;28;5069;-59
2023/07/25 08:31:06;;;;;;;;;;;;;;;;;;5044945;28;4978;-57
2023/07/25 08:33:31;;;;;;;;;;;;;;;;;;5043088;28;5139;-58
2023/07/25 08:35:57;;;;;;;;;;;;;;;;;;5044101;28;5188;-58
2023/07/25 08:38:22;;;;;;;;;;;;;;;;;;5045456;28;3251;-58
2023/07/25 08:40:48;;;;;;;;;;;;;;;;;;5046440;28;4975;-58
2023/07/25 08:43:13;;;;;;;;;;;;;;;;;;5012051;28;5082;-59
2023/07/25 08:45:40;;;;;;;;;;;;;;;;;;5027009;28;5079;-58
2023/07/25 08:48:07;;;;;;;;;;;;;;;;;;5024505;28;4941;-58
2023/07/25 08:50:32;;;;;;;;;;;;;;;;;;5023567;28;3654;-57
2023/07/25 08:52:57;;;;;;;;;;;;;;;;;;5042933;28;4844;-59
2023/07/25 08:55:22;;;;;;;;;;;;;;;;;;5003584;28;4497;-68
2023/07/25 08:57:48;;;;;;;;;;;;;;;;;;5028496;28;4693;-68
2023/07/25 09:00:13;;;;;;;;;;;;;;;;;;5028736;28;5299;-68
2023/07/25 09:02:39;;;;;;;;;;;;;;;;;;5043417;28;3393;-70
2023/07/25 09:05:04;;;;;;;;;;;;;;;;;;5026805;28;4964;-73
2023/07/25 09:07:29;;;;;;;;;;;;;;;;;;5027566;28;5183;-70
2023/07/25 09:09:54;;;;;;;;;;;;;;;;;;5048145;28;5150;-71
2023/07/25 09:12:20;;;;;;;;;;;;;;;;;;5047749;28;5106;-72
2023/07/25 09:14:45;;;;;;;;;;;;;;;;;;5045137;28;1278;-67
2023/07/25 09:17:10;;;;;;;;;;;;;;;;;;5047932;28;4805;-70
2023/07/25 09:19:36;;;;;;;;;;;;;;;;;;5047131;28;4976;-74
2023/07/25 09:22:01;;;;;;;;;;;;;;;;;;5044704;28;4999;-74
2023/07/25 09:24:36;;;;;;;;;;;;;;;;;;5039256;28;5106;-69
2023/07/25 09:27:01;;;;;;;;;;;;;;;;;;5043267;28;5805;-71
2023/07/25 09:29:30;;;;;;;;;;;;;;;;;;5061739;28;3155;-63
2023/07/25 09:31:55;;;;;;;;;;;;;;;;;;5070394;28;5158;-62
2023/07/25 09:34:25;;;;;;;;;;;;;;;;;;5067223;28;5059;-74
2023/07/25 09:36:50;;;;;;;;;;;;;;;;;;5064954;28;4839;-69
2023/07/25 09:39:15;;;;;;;;;;;;;;;;;;5067536;28;4847;-70
2023/07/25 09:41:41;;;;;;;;;;;;;;;;;;5047326;28;3244;-74
2023/07/25 09:44:06;;;;;;;;;;;;;;;;;;5063482;28;5199;-66
2023/07/25 09:46:32;;;;;;;;;;;;;;;;;;5059484;28;5088;-69
2023/07/25 09:48:57;;;;;;;;;;;;;;;;;;5065223;28;4857;-73
2023/07/25 09:51:22;;;;;;;;;;;;;;;;;;5046447;28;5318;-71
2023/07/25 09:53:51;;;;;;;;;;;;;;;;;;5064201;28;3335;-73
2023/07/25 09:56:16;;;;;;;;;;;;;;;;;;5064413;28;5027;-71
2023/07/25 09:58:42;;;;;;;;;;;;;;;;;;5063805;28;4494;-66
2023/07/25 10:01:07;;;;;;;;;;;;;;;;;;5066098;28;5226;-73
2023/07/25 10:03:33;;;;;;;;;;;;;;;;;;5066608;28;5442;-68
2023/07/25 10:05:58;;;;;;;;;;;;;;;;;;5066656;28;4447;-70
2023/07/25 10:08:29;;;;;;;;;;;;;;;;;;5067493;28;2208;-71
2023/07/25 10:10:55;;;;;;;;;;;;;;;;;;5066110;28;5153;-71
2023/07/25 10:13:20;;;;;;;;;;;;;;;;;;5047395;28;4908;-67
2023/07/25 10:15:46;;;;;;;;;;;;;;;;;;5065452;28;5092;-68
2023/07/25 10:18:19;;;;;;;;;;;;;;;;;;5048130;28;4904;-70
2023/07/25 10:20:44;;;;;;;;;;;;;;;;;;5047016;28;3221;-72
2023/07/25 10:23:10;;;;;;;;;;;;;;;;;;5063356;28;5239;-68
2023/07/25 10:25:35;;;;;;;;;;;;;;;;;;5057859;28;5311;-74
2023/07/25 10:28:03;;;;;;;;;;;;;;;;;;5062330;28;4936;-79
2023/07/25 10:30:30;;;;;;;;;;;;;;;;;;5059341;28;5037;-72
2023/07/25 10:32:58;;;;;;;;;;;;;;;;;;5060786;28;5010;-69
2023/07/25 10:35:42;;;;;;;;;;;;;;;;;;5062144;28;3391;-75
2023/07/25 10:38:08;;;;;;;;;;;;;;;;;;5061333;28;5091;-59
2023/07/25 10:40:49;;;;;;;;;;;;;;;;;;5068013;28;4638;-59
2023/07/25 10:43:14;;;;;;;;;;;;;;;;;;5030541;28;4550;-59
2023/07/25 10:45:46;;;;;;;;;;;;;;;;;;5044803;28;5019;-60
2023/07/25 10:48:30;;;;;;;;;;;;;;;;;;5066944;28;4837;-59
2023/07/25 10:50:55;;;;;;;;;;;;;;;;;;5065724;28;4922;-59
2023/07/25 10:53:21;;;;;;;;;;;;;;;;;;5067298;28;1794;-64
2023/07/25 10:56:08;;;;;;;;;;;;;;;;;;5060956;28;5193;-60
2023/07/25 10:58:53;;;;;;;;;;;;;;;;;;5067587;28;5102;-59
2023/07/25 11:01:30;;;;;;;;;;;;;;;;;;5041632;28;5047;-65
2023/07/25 11:03:55;;;;;;;;;;;;;;;;;;5042895;28;5022;-67
2023/07/25 11:06:20;;;;;;;;;;;;;;;;;;5048132;28;5351;-61
2023/07/25 11:08:46;;;;;;;;;;;;;;;;;;5066775;28;1312;-58
2023/07/25 11:11:12;;;;;;;;;;;;;;;;;;5061322;28;5000;-66
2023/07/25 11:13:37;;;;;;;;;;;;;;;;;;5063419;28;5073;-61
2023/07/25 11:16:09;;;;;;;;;;;;;;;;;;5064581;28;4993;-66
2023/07/25 11:18:37;;;;;;;;;;;;;;;;;;5049856;28;5068;-66
2023/07/25 11:21:04;;;;;;;;;;;;;;;;;;5067816;28;4996;-67
2023/07/25 11:23:29;;;;;;;;;;;;;;;;;;5050836;28;1985;-64
2023/07/25 11:25:54;;;;;;;;;;;;;;;;;;5065589;28;4996;-66
2023/07/25 11:28:22;;;;;;;;;;;;;;;;;;5069194;28;5057;-64
2023/07/25 11:30:48;;;;;;;;;;;;;;;;;;5064627;28;4840;-67
2023/07/25 11:33:13;;;;;;;;;;;;;;;;;;5029868;28;5119;-66
2023/07/25 11:35:38;;;;;;;;;;;;;;;;;;5068058;28;1376;-67
2023/07/25 11:38:03;;;;;;;;;;;;;;;;;;5069636;28;4472;-66
2023/07/25 11:40:29;;;;;;;;;;;;;;;;;;5068873;28;4711;-66
2023/07/25 11:42:54;;;;;;;;;;;;;;;;;;5068963;28;4627;-66
2023/07/25 11:45:20;;;;;;;;;;;;;;;;;;5051082;28;5173;-67
2023/07/25 11:47:46;;;;;;;;;;;;;;;;;;5049941;28;1145;-66
2023/07/25 11:50:11;;;;;;;;;;;;;;;;;;5050840;28;5145;-66
2023/07/25 11:52:38;;;;;;;;;;;;;;;;;;5050776;28;4904;-64
2023/07/25 11:55:03;;;;;;;;;;;;;;;;;;5065417;28;5036;-68
2023/07/25 11:57:28;;;;;;;;;;;;;;;;;;5048132;28;4980;-67
2023/07/25 11:59:54;;;;;;;;;;;;;;;;;;5068758;28;5087;-65
2023/07/25 12:02:19;;;;;;;;;;;;;;;;;;5068998;28;1232;-67
2023/07/25 12:04:45;;;;;;;;;;;;;;;;;;5050696;28;4598;-66
2023/07/25 12:07:11;;;;;;;;;;;;;;;;;;5068297;28;4982;-61
2023/07/25 12:09:36;;;;;;;;;;;;;;;;;;5065161;28;4983;-55
2023/07/25 12:12:02;;;;;;;;;;;;;;;;;;5065505;28;5154;-56
2023/07/25 12:14:27;;;;;;;;;;;;;;;;;;5063905;28;3177;-56
2023/07/25 12:16:52;;;;;;;;;;;;;;;;;;5067036;28;4413;-66
2023/07/25 12:19:18;;;;;;;;;;;;;;;;;;5062073;28;5157;-70
2023/07/25 12:21:44;;;;;;;;;;;;;;;;;;5063301;28;5090;-65
2023/07/25 12:24:15;;;;;;;;;;;;;;;;;;5068426;28;5121;-68
2023/07/25 12:26:44;;;;;;;;;;;;;;;;;;5066857;28;1325;-69
2023/07/25 12:29:14;;;;;;;;;;;;;;;;;;5047293;28;5013;-67
2023/07/25 12:31:39;;;;;;;;;;;;;;;;;;5060659;28;4922;-69
2023/07/25 12:34:04;;;;;;;;;;;;;;;;;;5068123;28;5267;-67
2023/07/25 12:36:30;;;;;;;;;;;;;;;;;;5064551;28;4696;-69
2023/07/25 12:38:55;;;;;;;;;;;;;;;;;;5050158;28;4635;-66
2023/07/25 12:41:22;;;;;;;;;;;;;;;;;;5069695;28;1166;-71
2023/07/25 12:43:48;;;;;;;;;;;;;;;;;;5065651;28;5180;-71
2023/07/25 12:46:13;;;;;;;;;;;;;;;;;;5069934;28;4964;-66
2023/07/25 12:48:38;;;;;;;;;;;;;;;;;;5069084;28;5018;-68
2023/07/25 12:51:04;;;;;;;;;;;;;;;;;;5065866;28;4623;-65
2023/07/25 12:53:29;;;;;;;;;;;;;;;;;;5065973;28;3172;-65
2023/07/25 12:55:54;;;;;;;;;;;;;;;;;;5068089;28;4620;-67
2023/07/25 12:58:20;;;;;;;;;;;;;;;;;;5067520;28;4458;-71
2023/07/25 13:00:45;;;;;;;;;;;;;;;;;;5050594;28;4674;-74
2023/07/25 13:03:11;;;;;;;;;;;;;;;;;;5067765;28;4768;-73
2023/07/25 13:05:36;;;;;;;;;;;;;;;;;;5051539;28;3296;-68
2023/07/25 13:08:01;;;;;;;;;;;;;;;;;;5072132;28;5073;-76
2023/07/25 13:10:27;;;;;;;;;;;;;;;;;;5065812;28;4444;-77
2023/07/25 13:12:52;;;;;;;;;;;;;;;;;;5052064;28;5164;-75
2023/07/25 13:15:18;;;;;;;;;;;;;;;;;;5064787;28;5200;-74
2023/07/25 13:17:43;;;;;;;;;;;;;;;;;;5062360;28;3842;-72
2023/07/25 13:20:09;;;;;;;;;;;;;;;;;;5058950;28;4614;-70
2023/07/25 13:22:34;;;;;;;;;;;;;;;;;;5063822;28;5415;-68
2023/07/25 13:25:01;;;;;;;;;;;;;;;;;;5061616;28;5042;-69
2023/07/25 13:27:27;;;;;;;;;;;;;;;;;;5060572;28;5081;-67
2023/07/25 13:29:53;;;;;;;;;;;;;;;;;;5063371;28;5208;-66
2023/07/25 13:32:18;;;;;;;;;;;;;;;;;;5046345;28;5286;-70
2023/07/25 13:34:44;;;;;;;;;;;;;;;;;;5065600;28;5344;-71
2023/07/25 13:37:09;;;;;;;;;;;;;;;;;;5060834;28;5918;-66
2023/07/25 13:39:34;;;;;;;;;;;;;;;;;;5068215;28;5109;-67
2023/07/25 13:41:59;;;;;;;;;;;;;;;;;;5062509;28;5220;-66
2023/07/25 13:44:25;;;;;;;;;;;;;;;;;;5066313;28;2179;-65
2023/07/25 13:46:50;;;;;;;;;;;;;;;;;;5069711;28;4617;-65
2023/07/25 13:49:16;;;;;;;;;;;;;;;;;;5066108;28;4644;-66
2023/07/25 13:51:41;;;;;;;;;;;;;;;;;;5067094;28;4912;-65
2023/07/25 13:54:06;;;;;;;;;;;;;;;;;;5062723;28;4868;-71
2023/07/25 13:56:32;;;;;;;;;;;;;;;;;;5066514;28;3152;-66
2023/07/25 13:58:57;;;;;;;;;;;;;;;;;;5058180;28;4985;-60
2023/07/25 14:01:22;;;;;;;;;;;;;;;;;;5062573;28;5036;-65
2023/07/25 14:03:48;;;;;;;;;;;;;;;;;;5066659;28;5007;-67
2023/07/25 14:06:13;;;;;;;;;;;;;;;;;;5065001;28;5061;-65
2023/07/25 14:08:38;;;;;;;;;;;;;;;;;;5066517;28;3168;-66
2023/07/25 14:11:04;;;;;;;;;;;;;;;;;;5066277;28;4935;-66
2023/07/25 14:13:30;;;;;;;;;;;;;;;;;;5050784;28;4558;-64
2023/07/25 14:15:55;;;;;;;;;;;;;;;;;;5045546;28;4999;-62
2023/07/25 14:18:21;;;;;;;;;;;;;;;;;;5058970;28;4983;-62
2023/07/25 14:20:46;;;;;;;;;;;;;;;;;;5066868;28;1279;-66
2023/07/25 14:23:12;;;;;;;;;;;;;;;;;;5043970;28;4473;-64
2023/07/25 14:25:37;;;;;;;;;;;;;;;;;;5059994;28;4483;-63
2023/07/25 14:28:02;;;;;;;;;;;;;;;;;;5062724;28;5086;-69
2023/07/25 14:30:28;;;;;;;;;;;;;;;;;;5063295;28;5533;-62
2023/07/25 14:32:53;;;;;;;;;;;;;;;;;;5062057;28;5203;-63
2023/07/25 14:35:18;;;;;;;;;;;;;;;;;;5063133;28;3169;-62
2023/07/25 14:37:43;;;;;;;;;;;;;;;;;;5066327;28;5083;-66
2023/07/25 14:40:09;;;;;;;;;;;;;;;;;;5061663;28;4956;-63
2023/07/25 14:42:35;;;;;;;;;;;;;;;;;;5066122;28;4995;-66
2023/07/25 14:45:00;;;;;;;;;;;;;;;;;;5065701;28;5166;-64
2023/07/25 14:47:25;;;;;;;;;;;;;;;;;;5068806;28;2132;-61
2023/07/25 14:49:50;;;;;;;;;;;;;;;;;;5069412;28;4395;-65
2023/07/25 14:52:16;;;;;;;;;;;;;;;;;;5069093;28;4917;-65
2023/07/25 14:54:41;;;;;;;;;;;;;;;;;;5066540;28;5318;-65
2023/07/25 14:57:06;;;;;;;;;;;;;;;;;;5070315;28;5067;-64
2023/07/25 14:59:32;;;;;;;;;;;;;;;;;;5070746;28;1368;-66
2023/07/25 15:01:57;;;;;;;;;;;;;;;;;;5066372;28;4480;-62
2023/07/25 15:04:22;;;;;;;;;;;;;;;;;;5072484;28;4641;-65
2023/07/25 15:06:48;;;;;;;;;;;;;;;;;;5063460;28;4726;-64
2023/07/25 15:09:13;;;;;;;;;;;;;;;;;;5068354;28;4493;-62
2023/07/25 15:11:38;;;;;;;;;;;;;;;;;;5066739;28;3367;-67
2023/07/25 15:14:04;;;;;;;;;;;;;;;;;;5068219;28;4959;-65
2023/07/25 15:16:29;;;;;;;;;;;;;;;;;;5066671;28;5041;-62
2023/07/25 15:18:55;;;;;;;;;;;;;;;;;;5047851;28;5036;-63
2023/07/25 15:21:20;;;;;;;;;;;;;;;;;;5066704;28;4854;-64
2023/07/25 15:23:45;;;;;;;;;;;;;;;;;;5070249;28;1945;-62
2023/07/25 15:26:10;;;;;;;;;;;;;;;;;;5059951;28;5088;-67
2023/07/25 15:28:36;;;;;;;;;;;;;;;;;;5068509;28;4940;-69
2023/07/25 15:31:02;;;;;;;;;;;;;;;;;;5066818;28;4882;-63
2023/07/25 15:33:27;;;;;;;;;;;;;;;;;;5070150;28;4942;-62
2023/07/25 15:35:52;;;;;;;;;;;;;;;;;;5067574;28;5097;-66
2023/07/25 15:38:18;;;;;;;;;;;;;;;;;;5051653;28;3277;-62
2023/07/25 15:40:43;;;;;;;;;;;;;;;;;;5067941;28;4984;-67
2023/07/25 15:43:08;;;;;;;;;;;;;;;;;;5067421;28;4456;-63
2023/07/25 15:45:34;;;;;;;;;;;;;;;;;;5065070;28;5263;-63
2023/07/25 15:47:59;;;;;;;;;;;;;;;;;;5050757;28;5027;-64
2023/07/25 15:50:25;;;;;;;;;;;;;;;;;;5066393;28;3239;-63
2023/07/25 15:52:50;;;;;;;;;;;;;;;;;;5066640;28;4542;-64
2023/07/25 15:55:15;;;;;;;;;;;;;;;;;;5060400;28;5159;-67
2023/07/25 15:57:41;;;;;;;;;;;;;;;;;;5065755;28;4987;-67
2023/07/25 16:00:06;;;;;;;;;;;;;;;;;;5062945;28;4909;-67
2023/07/25 16:02:32;;;;;;;;;;;;;;;;;;5063017;28;3233;-67
2023/07/25 16:04:57;;;;;;;;;;;;;;;;;;5068487;28;4890;-64
2023/07/25 16:07:23;;;;;;;;;;;;;;;;;;5067748;28;5430;-65
2023/07/25 16:09:48;;;;;;;;;;;;;;;;;;5068278;28;5232;-63
2023/07/25 16:12:14;;;;;;;;;;;;;;;;;;5068672;28;5036;-66
2023/07/25 16:14:39;;;;;;;;;;;;;;;;;;5066612;28;1978;-63
2023/07/25 16:17:04;;;;;;;;;;;;;;;;;;5060927;28;4996;-64
2023/07/25 16:19:29;;;;;;;;;;;;;;;;;;5066595;28;4651;-72
2023/07/25 16:21:55;;;;;;;;;;;;;;;;;;5063193;28;4576;-64
2023/07/25 16:24:20;;;;;;;;;;;;;;;;;;5057897;28;4536;-64
2023/07/25 16:26:45;;;;;;;;;;;;;;;;;;5070333;28;1112;-66
2023/07/25 16:29:10;;;;;;;;;;;;;;;;;;5064338;28;4998;-65
2023/07/25 16:31:36;;;;;;;;;;;;;;;;;;5062512;28;5076;-64
2023/07/25 16:34:01;;;;;;;;;;;;;;;;;;5065242;28;5337;-62
2023/07/25 16:36:26;;;;;;;;;;;;;;;;;;5066050;28;4585;-58
2023/07/25 16:38:52;;;;;;;;;;;;;;;;;;5066310;28;3635;-61
2023/07/25 16:41:17;;;;;;;;;;;;;;;;;;5049969;28;6235;-56
2023/07/25 16:43:43;;;;;;;;;;;;;;;;;;5066143;28;5162;-60
2023/07/25 16:46:08;;;;;;;;;;;;;;;;;;5065964;28;5024;-58
2023/07/25 16:48:33;;;;;;;;;;;;;;;;;;5066428;28;4469;-60
2023/07/25 16:50:59;;;;;;;;;;;;;;;;;;5063174;28;4456;-61
2023/07/25 16:53:24;;;;;;;;;;;;;;;;;;5065139;28;1496;-61